WetterOnline ( https://www.wetteronline.de )

Wetter aktuell Bellevue

Aktuelles Wetter: Mühlacker (245m)

6-stündlich | Neueste Meldungen
Ortszeit Temperatur Wetter
Di, 20.10. 14:00 15.3° C wolkenlos
Di, 20.10. 8:00 2.7° C wolkig
Di, 20.10. 2:00 2.4° C wolkenlos
Mo, 19.10. 20:00 4.1° C wolkenlos
Mo, 19.10. 14:00 12.3° C bewölkt
Mo, 19.10. 8:00 5.3° C bedeckt
Mo, 19.10. 2:00 5.2° C bedeckt
So, 18.10. 20:00 4.0° C wolkenlos
Ortszeit Temperatur Wetter
Di, 20.10. 17:00 15.0° C bedeckt
Di, 20.10. 16:50 15.0° C bedeckt
Di, 20.10. 16:40 15.5° C bedeckt
Di, 20.10. 16:30 15.9° C bewölkt
Di, 20.10. 16:20 15.9° C bewölkt
Di, 20.10. 16:10 16.5° C wolkig
Di, 20.10. 16:00 17.0° C leicht bewölkt
Di, 20.10. 15:30 17.5° C wolkig
Di, 20.10. 15:00 16.0° C leicht bewölkt
Di, 20.10. 14:30 15.9° C wolkenlos
Di, 20.10. 14:00 15.3° C wolkenlos
Ortszeit Relative Feuchte Sichtweite
Di, 20.10. 14:00 64% 27 km
Di, 20.10. 8:00 97% 4.7 km
Di, 20.10. 2:00 97% 3.9 km
Mo, 19.10. 20:00 93% 30 km
Mo, 19.10. 14:00 58% 40 km
Mo, 19.10. 8:00 98% 5.0 km
Mo, 19.10. 2:00 97% 7 km
So, 18.10. 20:00 95% 14 km
Ortszeit Relative Feuchte Sichtweite
Di, 20.10. 17:00 80% 45 km
Di, 20.10. 16:50 80% -
Di, 20.10. 16:40 75% -
Di, 20.10. 16:30 69% 45 km
Di, 20.10. 16:20 69% -
Di, 20.10. 16:10 63% -
Di, 20.10. 16:00 58% 45 km
Di, 20.10. 15:30 54% 45 km
Di, 20.10. 15:00 59% 40 km
Di, 20.10. 14:30 61% 35 km
Di, 20.10. 14:00 64% 27 km
Ortszeit Niederschlagsmenge Niederschlagsart
Di, 20.10. 14:00 0.0 l/m2 in 6 Std. -
Di, 20.10. 8:00 0.0 l/m2 in 12 Std. -
Di, 20.10. 2:00 0.0 l/m2 in 6 Std. -
Mo, 19.10. 20:00 0.0 l/m2 in 12 Std. -
Mo, 19.10. 14:00 0.0 l/m2 in 6 Std. -
Mo, 19.10. 8:00 0.0 l/m2 in 12 Std. -
Mo, 19.10. 2:00 0.0 l/m2 in 6 Std. -
So, 18.10. 20:00 0.0 l/m2 in 12 Std. -
Ortszeit Niederschlagsmenge Niederschlagsart
Di, 20.10. 17:00 0.0 l/m2 in 1 Std. -
Di, 20.10. 16:50 keine Meldung -
Di, 20.10. 16:40 keine Meldung -
Di, 20.10. 16:30 0.0 l/m2 in 1 Std. -
Di, 20.10. 16:20 keine Meldung -
Di, 20.10. 16:10 keine Meldung -
Di, 20.10. 16:00 0.0 l/m2 in 1 Std. -
Di, 20.10. 15:30 0.0 l/m2 in 1 Std. -
Di, 20.10. 15:00 0.0 l/m2 in 1 Std. -
Di, 20.10. 14:30 0.0 l/m2 in 1 Std. -
Di, 20.10. 14:00 0.0 l/m2 in 1 Std. -
Ortszeit Stärke Spitze Richtung
km/h Bft. km/h Grad Sektor
Di, 20.10. 14:00 7 2 18 90° O
Di, 20.10. 8:00 6 1 15 110° O
Di, 20.10. 2:00 4 1 14 110° O
Mo, 19.10. 20:00 0 0 18 - -
Mo, 19.10. 14:00 4 1 11 10° N
Mo, 19.10. 8:00 4 1 4 120° SO
Mo, 19.10. 2:00 0 0 4 - -
So, 18.10. 20:00 4 1 25 70° O
Ortszeit Stärke Spitze Richtung
km/h Bft. km/h Grad Sektor
Di, 20.10. 17:00 2 1 7 150° SO
Di, 20.10. 16:50 2 1 - 150° SO
Di, 20.10. 16:40 2 1 - 130° SO
Di, 20.10. 16:30 4 1 7 90° O
Di, 20.10. 16:20 4 1 - 90° O
Di, 20.10. 16:10 4 1 - 100° O
Di, 20.10. 16:00 4 1 11 120° SO
Di, 20.10. 15:30 4 1 7 150° SO
Di, 20.10. 15:00 7 2 18 110° O
Di, 20.10. 14:30 7 2 13 100° O
Di, 20.10. 14:00 7 2 18 90° O
Ortszeit Untergrenze Bedeckung Gattung
total tief tief mittel hoch
Di, 20.10. 14:00 - 0/8 0/8 - - -
Di, 20.10. 8:00 10500 m 7/8 0/8 - - -
Di, 20.10. 2:00 - 0/8 0/8 - - -
Mo, 19.10. 20:00 - 0/8 0/8 - - -
Mo, 19.10. 14:00 1500 m 7/8 7/8 - - -
Mo, 19.10. 8:00 1500 m 8/8 8/8 - - -
Mo, 19.10. 2:00 1500 m 8/8 8/8 - - -
So, 18.10. 20:00 - 0/8 0/8 - - -
Ortszeit Bedeckungsgrad in Achtel und Wolkenuntergrenze
Di, 20.10. 17:00 8(4500m)
Di, 20.10. 16:50 8(4500m)
Di, 20.10. 16:40 8(4500m)
Di, 20.10. 16:30 7(4800m) 7(9000m)
Di, 20.10. 16:20 7(4800m) 7(9000m)
Di, 20.10. 16:10 5(4800m) 6(9000m)
Di, 20.10. 16:00 2(5100m) 4(6900m)
Di, 20.10. 15:30 5(6900m) 7(6900m)
Di, 20.10. 15:00 3(7800m)
Di, 20.10. 14:30 keine Wolken
Di, 20.10. 14:00 keine Wolken
Ortszeit Luftdruck NN (hPa) Tendenz (hPa in 3 Std.)
Di, 20.10. 14:00 1015 - 1,3
Di, 20.10. 8:00 1017 - 0,8
Di, 20.10. 2:00 1020 - 1,8
Mo, 19.10. 20:00 1022 - 0,6
Mo, 19.10. 14:00 1023 - 1,3
Mo, 19.10. 8:00 1024 - 0,2
Mo, 19.10. 2:00 1025 - 0,1
So, 18.10. 20:00 1025 + 1,1
Ortszeit Luftdruck NN (hPa) Tendenz (hPa in 3 Std.)
Di, 20.10. 17:00 1014 - 0,5
Di, 20.10. 16:50 1014 keine Meldung
Di, 20.10. 16:40 1014 keine Meldung
Di, 20.10. 16:30 1014 - 1,4
Di, 20.10. 16:20 1014 keine Meldung
Di, 20.10. 16:10 1014 keine Meldung
Di, 20.10. 16:00 1014 - 1,4
Di, 20.10. 15:30 1014 - 1,5
Di, 20.10. 15:00 1014 - 1,4
Di, 20.10. 14:30 1014 - 1,5
Di, 20.10. 14:00 1015 - 1,3
Ortszeit Schneehöhe (cm)
Di, 20.10. 14:00 0
Di, 20.10. 8:00 0
Di, 20.10. 2:00 0
Mo, 19.10. 20:00 0
Mo, 19.10. 14:00 0
Mo, 19.10. 8:00 0
Mo, 19.10. 2:00 0
So, 18.10. 20:00 0
Ortszeit Schneehöhe (cm)
Di, 20.10. 17:00 0
Di, 20.10. 16:50 0
Di, 20.10. 16:40 0
Di, 20.10. 16:30 0
Di, 20.10. 16:20 0
Di, 20.10. 16:10 0
Di, 20.10. 16:00 0
Di, 20.10. 15:30 0
Di, 20.10. 15:00 0
Di, 20.10. 14:30 0
Di, 20.10. 14:00 0
Link zu dieser Seite / Seite empfehlen

Das Wetter in ...